createdAt,value
2019-03-24T00:00:30.366Z,40.84
2019-03-24T00:01:40.432Z,40.77
2019-03-24T00:02:31.348Z,40.56
2019-03-24T00:03:30.335Z,41.80
2019-03-24T00:04:30.340Z,41.07
2019-03-24T00:05:30.335Z,41.25
2019-03-24T00:06:30.303Z,41.56
2019-03-24T00:07:30.320Z,41.17
2019-03-24T00:08:30.320Z,42.29
2019-03-24T00:09:30.299Z,41.99
2019-03-24T00:10:30.309Z,41.99
2019-03-24T00:11:30.278Z,41.99
2019-03-24T00:12:30.237Z,42.69
2019-03-24T00:13:30.224Z,43.00
2019-03-24T00:14:30.231Z,43.35
2019-03-24T00:15:30.222Z,42.51
2019-03-24T00:16:30.192Z,42.33
2019-03-24T00:17:30.201Z,41.92
2019-03-24T00:18:30.178Z,42.13
2019-03-24T00:19:30.165Z,41.29
2019-03-24T00:20:30.151Z,42.00
2019-03-24T00:21:30.147Z,42.43
2019-03-24T00:22:30.126Z,43.04
2019-03-24T00:23:30.111Z,43.77
2019-03-24T00:24:30.102Z,43.90
2019-03-24T00:25:30.099Z,44.38
2019-03-24T00:26:30.081Z,43.69
2019-03-24T00:27:30.069Z,44.20
2019-03-24T00:28:30.058Z,44.93
2019-03-24T00:29:30.044Z,44.73
2019-03-24T00:30:30.035Z,43.59
2019-03-24T00:31:30.035Z,42.65
2019-03-24T00:32:30.018Z,43.06
2019-03-24T00:33:30.005Z,43.69
2019-03-24T00:34:30.039Z,43.49
2019-03-24T00:35:29.986Z,43.18
2019-03-24T00:36:29.969Z,42.88
2019-03-24T00:37:29.970Z,43.71
2019-03-24T00:38:29.949Z,44.22
2019-03-24T00:39:29.947Z,44.45
2019-03-24T00:40:29.929Z,44.37
2019-03-24T00:41:29.916Z,44.78
2019-03-24T00:42:29.907Z,44.78
2019-03-24T00:43:29.889Z,44.46
2019-03-24T00:44:29.881Z,45.81
2019-03-24T00:45:36.868Z,45.92
2019-03-24T00:46:30.863Z,45.59
2019-03-24T00:47:29.852Z,44.98
2019-03-24T00:48:29.842Z,46.28
2019-03-24T00:49:29.837Z,46.08
2019-03-24T00:50:29.813Z,44.14
2019-03-24T00:51:29.808Z,43.81
2019-03-24T00:52:29.792Z,43.91
2019-03-24T00:53:29.782Z,43.71
2019-03-24T00:54:29.772Z,44.14
2019-03-24T00:55:29.770Z,43.73
2019-03-24T00:56:29.753Z,43.53
2019-03-24T00:57:29.739Z,44.14
2019-03-24T00:58:29.736Z,43.24
2019-03-24T00:59:29.719Z,43.85
2019-03-24T01:00:29.708Z,43.75
2019-03-24T01:01:29.694Z,43.77
2019-03-24T01:02:29.684Z,44.28
2019-03-24T01:03:29.678Z,45.84
2019-03-24T01:04:29.666Z,45.96
2019-03-24T01:05:29.648Z,44.20
2019-03-24T01:06:29.640Z,44.28
2019-03-24T01:07:29.693Z,44.98
2019-03-24T01:08:29.635Z,44.37
2019-03-24T01:09:29.608Z,44.26
2019-03-24T01:10:29.599Z,45.59
2019-03-24T01:11:29.586Z,46.33
2019-03-24T01:12:29.575Z,46.73
2019-03-24T01:13:29.564Z,47.90
2019-03-24T01:14:29.559Z,48.33
2019-03-24T01:15:29.538Z,48.64
2019-03-24T01:16:29.535Z,50.09
2019-03-24T01:17:29.517Z,50.52
2019-03-24T01:18:29.504Z,51.57
2019-03-24T01:19:29.494Z,49.93
2019-03-24T01:20:29.484Z,48.46
2019-03-24T01:21:29.474Z,47.08
2019-03-24T01:22:29.466Z,45.61
2019-03-24T01:23:29.448Z,44.37
2019-03-24T01:24:29.439Z,45.69
2019-03-24T01:25:29.432Z,46.53
2019-03-24T01:26:29.415Z,46.02
2019-03-24T01:27:29.408Z,45.39
2019-03-24T01:28:29.392Z,45.39
2019-03-24T01:29:29.381Z,43.81
2019-03-24T01:30:29.371Z,43.61
2019-03-24T01:31:29.359Z,44.14
2019-03-24T01:32:29.357Z,43.94
2019-03-24T01:33:29.340Z,44.45
2019-03-24T01:34:29.326Z,43.63
2019-03-24T01:35:29.315Z,44.34
2019-03-24T01:36:29.302Z,43.81
2019-03-24T01:37:29.508Z,44.65
2019-03-24T01:38:29.290Z,44.63
2019-03-24T01:39:29.269Z,43.61
2019-03-24T01:40:29.257Z,43.94
2019-03-24T01:41:29.246Z,44.65
2019-03-24T01:42:29.235Z,43.43
2019-03-24T01:43:29.224Z,43.85
2019-03-24T01:44:29.213Z,45.49
2019-03-24T01:45:29.206Z,46.94
2019-03-24T01:46:29.191Z,45.81
2019-03-24T01:47:29.182Z,46.10
2019-03-24T01:48:29.169Z,45.49
2019-03-24T01:49:29.158Z,44.65
2019-03-24T01:50:29.148Z,43.81
2019-03-24T01:51:29.144Z,44.14
2019-03-24T01:52:29.129Z,45.67
2019-03-24T01:53:29.119Z,45.69
2019-03-24T01:54:29.280Z,46.51
2019-03-24T01:55:29.220Z,45.28
2019-03-24T01:56:29.141Z,44.45
2019-03-24T01:57:29.067Z,44.02
2019-03-24T01:58:29.057Z,44.73
2019-03-24T01:59:29.043Z,44.22
2019-03-24T02:00:29.039Z,44.85
2019-03-24T02:01:29.054Z,44.96
2019-03-24T02:02:29.019Z,44.34
2019-03-24T02:03:29.010Z,43.41
2019-03-24T02:04:28.989Z,43.59
2019-03-24T02:05:28.982Z,43.61
2019-03-24T02:06:28.972Z,44.63
2019-03-24T02:07:28.955Z,43.08
2019-03-24T02:08:28.949Z,42.63
2019-03-24T02:09:28.938Z,42.74
2019-03-24T02:10:28.932Z,41.82
2019-03-24T02:11:28.913Z,43.26
2019-03-24T02:12:28.905Z,43.10
2019-03-24T02:13:28.890Z,42.25
2019-03-24T02:14:28.883Z,42.14
2019-03-24T02:15:28.873Z,42.04
2019-03-24T02:16:28.866Z,40.92
2019-03-24T02:17:28.876Z,41.11
2019-03-24T02:18:28.835Z,41.21
2019-03-24T02:19:28.829Z,39.76
2019-03-24T02:20:28.836Z,40.80
2019-03-24T02:21:28.812Z,41.53
2019-03-24T02:22:28.796Z,41.02
2019-03-24T02:23:28.787Z,40.91
2019-03-24T02:24:28.778Z,40.50
2019-03-24T02:25:28.760Z,40.19
2019-03-24T02:26:28.757Z,40.39
2019-03-24T02:27:28.735Z,40.39
2019-03-24T02:28:28.733Z,39.48
2019-03-24T02:29:28.716Z,39.87
2019-03-24T02:30:28.710Z,39.38
2019-03-24T02:31:28.697Z,40.09
2019-03-24T02:32:28.687Z,40.80
2019-03-24T02:33:28.682Z,41.02
2019-03-24T02:34:28.667Z,40.62
2019-03-24T02:35:28.651Z,39.70
2019-03-24T02:36:28.641Z,38.75
2019-03-24T02:37:28.630Z,39.14
2019-03-24T02:38:28.614Z,39.36
2019-03-24T02:39:28.605Z,39.36
2019-03-24T02:40:28.602Z,39.89
2019-03-24T02:41:28.584Z,39.36
2019-03-24T02:42:28.572Z,40.60
2019-03-24T02:43:28.566Z,42.27
2019-03-24T02:44:28.569Z,42.30
2019-03-24T02:45:28.545Z,41.47
2019-03-24T02:46:28.538Z,41.47
2019-03-24T02:47:28.525Z,41.98
2019-03-24T02:48:28.509Z,41.78
2019-03-24T02:49:28.500Z,41.89
2019-03-24T02:50:28.486Z,41.57
2019-03-24T02:51:28.478Z,41.35
2019-03-24T02:52:28.463Z,41.06
2019-03-24T02:53:28.452Z,41.27
2019-03-24T02:54:28.442Z,41.57
2019-03-24T02:55:28.435Z,41.37
2019-03-24T02:56:28.417Z,41.35
2019-03-24T02:57:28.412Z,41.14
2019-03-24T02:58:28.407Z,40.52
2019-03-24T02:59:28.388Z,39.58
2019-03-24T03:00:28.378Z,39.69
2019-03-24T03:01:28.365Z,39.69
2019-03-24T03:02:28.353Z,40.21
2019-03-24T03:03:28.341Z,39.90
2019-03-24T03:04:28.334Z,41.13
2019-03-24T03:05:28.323Z,41.75
2019-03-24T03:06:28.308Z,41.75
2019-03-24T03:07:28.296Z,41.96
2019-03-24T03:08:28.289Z,41.57
2019-03-24T03:09:28.275Z,41.67
2019-03-24T03:10:28.268Z,42.06
2019-03-24T03:11:28.253Z,41.37
2019-03-24T03:12:28.242Z,41.80
2019-03-24T03:13:28.233Z,43.04
2019-03-24T03:14:28.227Z,46.53
2019-03-24T03:15:28.211Z,47.57
2019-03-24T03:16:38.331Z,48.43
2019-03-24T03:17:29.201Z,47.85
2019-03-24T03:18:28.178Z,46.51
2019-03-24T03:19:28.165Z,43.90
2019-03-24T03:20:28.201Z,41.27
2019-03-24T03:21:28.142Z,40.52
2019-03-24T03:22:28.142Z,41.13
2019-03-24T03:23:28.128Z,41.98
2019-03-24T03:24:28.110Z,41.14
2019-03-24T03:25:28.099Z,40.39
2019-03-24T03:26:28.090Z,41.33
2019-03-24T03:27:28.084Z,41.25
2019-03-24T03:28:28.073Z,41.14
2019-03-24T03:29:28.062Z,41.05
2019-03-24T03:30:28.052Z,40.74
2019-03-24T03:31:28.033Z,41.25
2019-03-24T03:32:28.030Z,42.29
2019-03-24T03:33:28.030Z,41.89
2019-03-24T03:34:28.005Z,42.41
2019-03-24T03:35:28.002Z,41.88
2019-03-24T03:36:28.194Z,41.37
2019-03-24T03:37:27.970Z,41.78
2019-03-24T03:38:27.960Z,42.18
2019-03-24T03:39:27.949Z,42.30
2019-03-24T03:40:27.934Z,41.57
2019-03-24T03:41:27.927Z,41.55
2019-03-24T03:42:27.911Z,41.89
2019-03-24T03:43:27.905Z,43.35
2019-03-24T03:44:27.890Z,43.77
2019-03-24T03:45:27.909Z,43.67
2019-03-24T03:46:27.869Z,43.90
2019-03-24T03:47:27.870Z,43.82
2019-03-24T03:48:27.843Z,44.10
2019-03-24T03:49:27.844Z,43.90
2019-03-24T03:50:27.822Z,47.49
2019-03-24T03:51:27.817Z,45.76
2019-03-24T03:52:27.813Z,44.02
2019-03-24T03:53:27.794Z,42.94
2019-03-24T03:54:27.854Z,43.63
2019-03-24T03:55:27.772Z,42.83
2019-03-24T03:56:27.761Z,46.12
2019-03-24T03:57:27.749Z,48.61
2019-03-24T03:58:27.736Z,51.24
2019-03-24T03:59:27.727Z,51.50
2019-03-24T04:00:27.717Z,53.05
2019-03-24T04:01:27.700Z,53.87
2019-03-24T04:02:27.696Z,53.16
2019-03-24T04:03:27.680Z,52.75
2019-03-24T04:04:27.668Z,52.42
2019-03-24T04:05:27.656Z,51.39
2019-03-24T04:06:27.648Z,50.88
2019-03-24T04:07:27.638Z,51.59
2019-03-24T04:08:27.628Z,51.70
2019-03-24T04:09:27.618Z,51.82
2019-03-24T04:10:27.598Z,50.49
2019-03-24T04:11:27.592Z,50.49
2019-03-24T04:12:27.579Z,49.65
2019-03-24T04:13:27.571Z,48.19
2019-03-24T04:14:27.557Z,49.19
2019-03-24T04:15:27.545Z,47.76
2019-03-24T04:16:27.536Z,48.38
2019-03-24T04:17:27.527Z,48.38
2019-03-24T04:18:27.607Z,48.48
2019-03-24T04:19:27.502Z,48.07
2019-03-24T04:20:27.501Z,47.97
2019-03-24T04:21:27.478Z,46.94
2019-03-24T04:22:27.467Z,47.03
2019-03-24T04:23:27.459Z,46.59
2019-03-24T04:24:27.450Z,45.76
2019-03-24T04:25:27.450Z,44.08
2019-03-24T04:26:27.437Z,43.85
2019-03-24T04:27:27.421Z,42.82
2019-03-24T04:28:27.406Z,41.78
2019-03-24T04:29:27.396Z,42.18
2019-03-24T04:30:27.381Z,42.39
2019-03-24T04:31:27.373Z,42.49
2019-03-24T04:32:27.360Z,42.92
2019-03-24T04:33:27.349Z,43.35
2019-03-24T04:34:27.337Z,44.08
2019-03-24T04:35:27.321Z,44.10
2019-03-24T04:36:27.313Z,44.38
2019-03-24T04:37:27.300Z,43.67
2019-03-24T04:38:27.293Z,43.67
2019-03-24T04:39:27.280Z,43.67
2019-03-24T04:40:27.269Z,43.67
2019-03-24T04:41:27.255Z,43.67
2019-03-24T04:42:27.244Z,42.73
2019-03-24T04:43:27.233Z,43.24
2019-03-24T04:44:27.225Z,43.55
2019-03-24T04:45:27.213Z,43.37
2019-03-24T04:46:27.198Z,43.67
2019-03-24T04:47:27.202Z,43.88
2019-03-24T04:48:27.181Z,45.84
2019-03-24T04:49:27.166Z,46.57
2019-03-24T04:50:27.155Z,45.96
2019-03-24T04:51:27.142Z,45.96
2019-03-24T04:52:27.131Z,46.29
2019-03-24T04:53:27.120Z,45.98
2019-03-24T04:54:27.124Z,46.92
2019-03-24T04:55:27.098Z,46.44
2019-03-24T04:56:27.208Z,49.91
2019-03-24T04:57:27.076Z,51.47
2019-03-24T04:58:27.063Z,51.70
2019-03-24T04:59:27.064Z,53.05
2019-03-24T05:00:27.042Z,53.90
2019-03-24T05:01:27.033Z,53.92
2019-03-24T05:02:27.027Z,54.97
2019-03-24T05:03:27.020Z,56.34
2019-03-24T05:04:27.000Z,56.15
2019-03-24T05:05:26.992Z,56.26
2019-03-24T05:06:26.987Z,56.28
2019-03-24T05:07:26.965Z,56.38
2019-03-24T05:08:26.953Z,56.31
2019-03-24T05:09:26.948Z,53.15
2019-03-24T05:10:26.950Z,53.33
2019-03-24T05:11:26.923Z,51.23
2019-03-24T05:12:26.912Z,48.60
2019-03-24T05:13:26.904Z,46.72
2019-03-24T05:14:26.888Z,46.80
2019-03-24T05:15:26.878Z,46.90
2019-03-24T05:16:26.867Z,49.27
2019-03-24T05:17:27.482Z,50.42
2019-03-24T05:18:26.858Z,51.78
2019-03-24T05:19:26.838Z,51.59
2019-03-24T05:20:26.822Z,53.46
2019-03-24T05:21:26.813Z,54.92
2019-03-24T05:22:26.804Z,55.15
2019-03-24T05:23:26.791Z,56.38
2019-03-24T05:24:26.779Z,56.62
2019-03-24T05:25:26.769Z,57.03
2019-03-24T05:26:26.773Z,57.36
2019-03-24T05:27:26.753Z,57.56
2019-03-24T05:28:26.735Z,57.79
2019-03-24T05:29:26.725Z,58.31
2019-03-24T05:30:26.716Z,57.70
2019-03-24T05:31:26.705Z,58.51
2019-03-24T05:32:26.689Z,59.44
2019-03-24T05:33:26.680Z,59.64
2019-03-24T05:34:26.669Z,58.83
2019-03-24T05:35:26.657Z,59.16
2019-03-24T05:36:26.649Z,59.13
2019-03-24T05:37:26.638Z,60.39
2019-03-24T05:38:26.621Z,60.49
2019-03-24T05:39:26.612Z,58.95
2019-03-24T05:40:26.603Z,58.75
2019-03-24T05:41:26.596Z,58.85
2019-03-24T05:42:26.587Z,58.95
2019-03-24T05:43:26.576Z,58.11
2019-03-24T05:44:26.561Z,54.87
2019-03-24T05:45:26.550Z,53.28
2019-03-24T05:46:26.537Z,51.04
2019-03-24T05:47:36.638Z,47.37
2019-03-24T05:48:27.528Z,43.87
2019-03-24T05:49:26.503Z,42.98
2019-03-24T05:50:26.492Z,41.38
2019-03-24T05:51:26.483Z,40.29
2019-03-24T05:52:27.661Z,39.97
2019-03-24T05:53:26.458Z,37.20
2019-03-24T05:54:26.446Z,35.66
2019-03-24T05:55:26.437Z,35.66
2019-03-24T05:56:26.428Z,36.69
2019-03-24T05:57:26.415Z,37.30
2019-03-24T05:58:26.402Z,38.24
2019-03-24T05:59:26.396Z,38.06
2019-03-24T06:00:26.379Z,37.74
2019-03-24T06:01:26.374Z,37.20
2019-03-24T06:02:26.359Z,36.77
2019-03-24T06:03:26.350Z,36.24
2019-03-24T06:04:26.339Z,36.00
2019-03-24T06:05:26.327Z,34.25
2019-03-24T06:06:26.314Z,34.64
2019-03-24T06:07:26.304Z,34.39
2019-03-24T06:08:26.292Z,33.95
2019-03-24T06:09:26.285Z,32.73
2019-03-24T06:10:26.285Z,33.44
2019-03-24T06:11:26.259Z,33.81
2019-03-24T06:12:26.245Z,32.79
2019-03-24T06:13:26.263Z,34.09
2019-03-24T06:14:26.227Z,34.01
2019-03-24T06:15:26.217Z,34.39
2019-03-24T06:16:26.207Z,35.63
2019-03-24T06:17:26.195Z,35.82
2019-03-24T06:18:26.180Z,36.46
2019-03-24T06:19:26.170Z,36.74
2019-03-24T06:20:26.187Z,36.04
2019-03-24T06:21:26.149Z,36.24
2019-03-24T06:22:26.142Z,37.81
2019-03-24T06:23:26.128Z,36.99
2019-03-24T06:24:26.117Z,36.55
2019-03-24T06:25:26.103Z,36.45
2019-03-24T06:26:26.113Z,35.31
2019-03-24T06:27:26.085Z,35.21
2019-03-24T06:28:26.084Z,36.45
2019-03-24T06:29:26.065Z,37.15
2019-03-24T06:30:26.051Z,36.41
2019-03-24T06:31:26.042Z,35.68
2019-03-24T06:32:26.029Z,35.10
2019-03-24T06:33:26.025Z,34.96
2019-03-24T06:34:26.008Z,33.84
2019-03-24T06:35:25.993Z,34.06
2019-03-24T06:36:25.982Z,34.76
2019-03-24T06:37:25.975Z,37.16
2019-03-24T06:38:25.974Z,38.34
2019-03-24T06:39:25.949Z,38.26
2019-03-24T06:40:25.941Z,37.85
2019-03-24T06:41:25.936Z,38.81
2019-03-24T06:42:25.920Z,38.55
2019-03-24T06:43:25.910Z,36.16
2019-03-24T06:44:25.898Z,35.95
2019-03-24T06:45:28.634Z,34.44
2019-03-24T06:46:25.875Z,34.49
2019-03-24T06:47:25.861Z,34.72
2019-03-24T06:48:25.847Z,37.24
2019-03-24T06:49:25.839Z,35.35
2019-03-24T06:50:25.831Z,35.35
2019-03-24T06:51:26.128Z,35.93
2019-03-24T06:52:25.806Z,36.32
2019-03-24T06:53:25.795Z,34.92
2019-03-24T06:54:25.784Z,35.23
2019-03-24T06:55:25.773Z,36.30
2019-03-24T06:56:25.762Z,36.85
2019-03-24T06:57:25.749Z,36.63
2019-03-24T06:58:25.747Z,37.08
2019-03-24T06:59:25.730Z,35.14
2019-03-24T07:00:25.718Z,34.64
2019-03-24T07:01:25.716Z,34.89
2019-03-24T07:02:25.694Z,33.95
2019-03-24T07:03:25.687Z,32.53
2019-03-24T07:04:25.723Z,33.61
2019-03-24T07:05:25.676Z,33.15
2019-03-24T07:06:25.671Z,34.18
2019-03-24T07:07:25.713Z,34.29
2019-03-24T07:08:25.658Z,37.19
2019-03-24T07:09:25.665Z,38.77
2019-03-24T07:10:25.670Z,40.10
2019-03-24T07:11:25.600Z,39.90
2019-03-24T07:12:25.612Z,39.39
2019-03-24T07:13:25.597Z,40.80
2019-03-24T07:14:25.568Z,41.31
2019-03-24T07:15:25.556Z,41.53
2019-03-24T07:16:25.542Z,41.42
2019-03-24T07:17:25.536Z,41.53
2019-03-24T07:18:25.526Z,41.20
2019-03-24T07:19:25.515Z,41.39
2019-03-24T07:20:25.498Z,41.29
2019-03-24T07:21:25.487Z,41.41
2019-03-24T07:22:25.476Z,41.61
2019-03-24T07:23:25.467Z,42.52
2019-03-24T07:24:25.454Z,41.73
2019-03-24T07:25:25.445Z,41.61
2019-03-24T07:26:25.431Z,41.09
2019-03-24T07:27:25.416Z,40.34
2019-03-24T07:28:25.417Z,39.16
2019-03-24T07:29:25.405Z,38.17
2019-03-24T07:30:25.385Z,36.79
2019-03-24T07:31:25.375Z,35.14
2019-03-24T07:32:25.372Z,34.20
2019-03-24T07:33:25.355Z,33.45
2019-03-24T07:34:25.384Z,32.62
2019-03-24T07:35:25.330Z,32.30
2019-03-24T07:36:25.323Z,35.43
2019-03-24T07:37:25.313Z,37.96
2019-03-24T07:38:25.323Z,39.22
2019-03-24T07:39:25.290Z,40.33
2019-03-24T07:40:25.290Z,40.00
2019-03-24T07:41:25.271Z,39.90
2019-03-24T07:42:25.252Z,39.94
2019-03-24T07:43:25.264Z,40.42
2019-03-24T07:44:25.232Z,40.22
2019-03-24T07:45:25.224Z,40.02
2019-03-24T07:46:25.214Z,40.73
2019-03-24T07:47:25.213Z,39.82
2019-03-24T07:48:25.191Z,40.64
2019-03-24T07:49:25.182Z,40.44
2019-03-24T07:50:25.168Z,40.97
2019-03-24T07:51:25.159Z,41.06
2019-03-24T07:52:25.150Z,41.17
2019-03-24T07:53:25.145Z,40.95
2019-03-24T07:54:25.122Z,40.34
2019-03-24T07:55:25.128Z,41.09
2019-03-24T07:56:25.108Z,39.94
2019-03-24T07:57:25.089Z,40.04
2019-03-24T07:58:25.083Z,40.42
2019-03-24T07:59:25.073Z,39.90
2019-03-24T08:00:25.063Z,39.40
2019-03-24T08:01:25.095Z,39.01
2019-03-24T08:02:25.032Z,40.14
2019-03-24T08:03:25.027Z,40.42
2019-03-24T08:04:25.027Z,40.04
2019-03-24T08:05:25.020Z,40.12
2019-03-24T08:06:24.993Z,39.28
2019-03-24T08:07:24.982Z,38.68
2019-03-24T08:08:24.972Z,39.36
2019-03-24T08:09:24.962Z,37.94
2019-03-24T08:10:24.971Z,37.92
2019-03-24T08:11:24.943Z,37.48
2019-03-24T08:12:24.929Z,36.15
2019-03-24T08:13:24.915Z,36.73
2019-03-24T08:14:24.905Z,37.05
2019-03-24T08:15:24.891Z,36.35
2019-03-24T08:16:24.893Z,36.36
2019-03-24T08:17:24.875Z,36.18
2019-03-24T08:18:29.869Z,37.02
2019-03-24T08:19:25.923Z,38.84
2019-03-24T08:20:24.848Z,37.44
2019-03-24T08:21:24.827Z,37.62
2019-03-24T08:22:24.833Z,36.58
2019-03-24T08:23:24.810Z,35.96
2019-03-24T08:24:24.800Z,35.16
2019-03-24T08:25:24.788Z,35.51
2019-03-24T08:26:24.796Z,35.60
2019-03-24T08:27:24.767Z,34.99
2019-03-24T08:28:24.751Z,34.61
2019-03-24T08:29:24.747Z,34.36
2019-03-24T08:30:24.735Z,34.16
2019-03-24T08:31:24.729Z,34.69
2019-03-24T08:32:24.717Z,34.16
2019-03-24T08:33:24.699Z,33.51
2019-03-24T08:34:24.691Z,33.51
2019-03-24T08:35:24.681Z,32.32
2019-03-24T08:36:24.675Z,32.89
2019-03-24T08:37:24.668Z,32.34
2019-03-24T08:38:24.643Z,31.00
2019-03-24T08:39:24.722Z,30.12
2019-03-24T08:40:24.628Z,30.54
2019-03-24T08:41:24.622Z,30.04
2019-03-24T08:42:24.609Z,30.93
2019-03-24T08:43:24.592Z,31.45
2019-03-24T08:44:24.585Z,31.05
2019-03-24T08:45:24.579Z,31.63
2019-03-24T08:46:24.564Z,31.74
2019-03-24T08:47:24.554Z,31.15
2019-03-24T08:48:24.542Z,31.15
2019-03-24T08:49:24.532Z,31.13
2019-03-24T08:50:24.518Z,30.12
2019-03-24T08:51:24.518Z,30.60
2019-03-24T08:52:24.511Z,30.19
2019-03-24T08:53:24.488Z,29.37
2019-03-24T08:54:24.668Z,28.18
2019-03-24T08:55:24.573Z,29.39
2019-03-24T08:56:24.486Z,29.93
2019-03-24T08:57:24.449Z,30.12
2019-03-24T08:58:24.554Z,30.11
2019-03-24T08:59:24.494Z,29.91
2019-03-24T09:00:30.465Z,29.91
2019-03-24T09:01:25.403Z,29.47
2019-03-24T09:02:24.583Z,29.33
2019-03-24T09:03:24.382Z,28.32
2019-03-24T09:04:24.371Z,27.83
2019-03-24T09:05:24.604Z,28.56
2019-03-24T09:06:24.359Z,27.80
2019-03-24T09:07:24.350Z,29.10
2019-03-24T09:08:24.330Z,29.00
2019-03-24T09:09:24.344Z,29.69
2019-03-24T09:10:24.313Z,29.39
2019-03-24T09:11:31.294Z,27.97
2019-03-24T09:12:25.378Z,27.95
2019-03-24T09:13:24.284Z,27.16
2019-03-24T09:14:24.285Z,27.19
2019-03-24T09:15:24.330Z,27.89
2019-03-24T09:16:24.252Z,27.75
2019-03-24T09:17:24.282Z,27.11
2019-03-24T09:18:24.234Z,26.62
2019-03-24T09:19:24.222Z,27.53
2019-03-24T09:20:24.250Z,26.85
2019-03-24T09:21:24.209Z,26.91
2019-03-24T09:22:24.193Z,27.39
2019-03-24T09:23:24.213Z,26.62
2019-03-24T09:24:24.231Z,25.93
2019-03-24T09:25:24.208Z,26.95
2019-03-24T09:26:24.150Z,27.56
2019-03-24T09:27:24.228Z,28.04
2019-03-24T09:28:24.163Z,26.70
2019-03-24T09:29:24.118Z,26.77
2019-03-24T09:30:24.111Z,26.19
2019-03-24T09:31:24.097Z,26.68
2019-03-24T09:32:24.093Z,25.12
2019-03-24T09:33:24.081Z,25.72
2019-03-24T09:34:24.181Z,25.33
2019-03-24T09:35:24.062Z,24.93
2019-03-24T09:36:24.050Z,26.28
2019-03-24T09:37:24.038Z,26.36
2019-03-24T09:38:24.033Z,26.32
2019-03-24T09:39:24.079Z,23.94
2019-03-24T09:40:24.013Z,23.65
2019-03-24T09:41:24.002Z,23.88
2019-03-24T09:42:23.993Z,25.27
2019-03-24T09:43:23.995Z,25.57
2019-03-24T09:44:23.970Z,24.48
2019-03-24T09:45:23.960Z,22.69
2019-03-24T09:46:23.949Z,22.37
2019-03-24T09:47:23.938Z,22.25
2019-03-24T09:48:23.929Z,22.82
2019-03-24T09:49:23.925Z,22.93
2019-03-24T09:50:23.910Z,22.53
2019-03-24T09:51:23.902Z,21.17
2019-03-24T09:52:23.898Z,23.47
2019-03-24T09:53:23.882Z,23.69
2019-03-24T09:54:23.871Z,22.67
2019-03-24T09:55:23.860Z,22.95
2019-03-24T09:56:23.855Z,22.05
2019-03-24T09:57:23.847Z,22.44
2019-03-24T09:58:23.836Z,21.76
2019-03-24T09:59:23.825Z,20.03
2019-03-24T10:00:23.816Z,21.37
2019-03-24T10:01:23.808Z,23.29
2019-03-24T10:02:23.799Z,23.59
2019-03-24T10:03:23.787Z,23.89
2019-03-24T10:04:23.779Z,23.79
2019-03-24T10:05:23.765Z,23.69
2019-03-24T10:06:23.761Z,23.06
2019-03-24T10:07:23.749Z,23.04
2019-03-24T10:08:23.741Z,23.03
2019-03-24T10:09:23.736Z,21.64
2019-03-24T10:10:23.734Z,21.44
2019-03-24T10:11:23.747Z,20.54
2019-03-24T10:12:23.703Z,21.59
2019-03-24T10:13:23.687Z,20.49
2019-03-24T10:14:23.685Z,20.67
2019-03-24T10:15:23.676Z,20.37
2019-03-24T10:16:23.660Z,21.05
2019-03-24T10:17:23.652Z,20.06
2019-03-24T10:18:23.642Z,20.47
2019-03-24T10:19:23.637Z,20.47
2019-03-24T10:20:23.632Z,20.65
2019-03-24T10:21:23.619Z,20.00
2019-03-24T10:22:23.604Z,21.26
2019-03-24T10:23:23.602Z,21.43
2019-03-24T10:24:23.603Z,19.27
2019-03-24T10:25:23.578Z,20.09
2019-03-24T10:26:23.569Z,22.26
2019-03-24T10:27:23.560Z,21.56
2019-03-24T10:28:23.553Z,21.29
2019-03-24T10:29:23.539Z,21.03
2019-03-24T10:30:23.538Z,21.26
2019-03-24T10:31:23.521Z,21.67
2019-03-24T10:32:23.521Z,21.26
2019-03-24T10:33:23.501Z,21.92
2019-03-24T10:34:23.544Z,20.62
2019-03-24T10:35:23.498Z,20.59
2019-03-24T10:36:23.481Z,20.17
2019-03-24T10:37:23.474Z,22.05
2019-03-24T10:38:23.462Z,21.86
2019-03-24T10:39:23.456Z,19.96
2019-03-24T10:40:28.493Z,19.59
2019-03-24T10:41:24.430Z,20.19
2019-03-24T10:42:23.557Z,20.50
2019-03-24T10:43:23.408Z,21.36
2019-03-24T10:44:23.405Z,20.07
2019-03-24T10:45:23.395Z,21.15
2019-03-24T10:46:23.385Z,20.73
2019-03-24T10:47:23.375Z,20.41
2019-03-24T10:48:33.301Z,19.70
2019-03-24T10:49:25.350Z,19.89
2019-03-24T10:50:23.345Z,19.51
2019-03-24T10:51:23.347Z,20.06
2019-03-24T10:52:23.333Z,21.29
2019-03-24T10:53:23.353Z,21.61
2019-03-24T10:54:23.319Z,21.80
2019-03-24T10:55:23.310Z,20.97
2019-03-24T10:56:23.294Z,22.93
2019-03-24T10:57:23.306Z,21.33
2019-03-24T10:58:23.274Z,21.81
2019-03-24T10:59:23.272Z,19.96
2019-03-24T11:00:23.263Z,21.94
2019-03-24T11:01:23.252Z,19.96
2019-03-24T11:02:23.248Z,20.54
2019-03-24T11:03:23.240Z,20.43
2019-03-24T11:04:23.223Z,20.64
2019-03-24T11:05:23.299Z,20.04
2019-03-24T11:06:23.207Z,20.23
2019-03-24T11:07:23.199Z,19.84
2019-03-24T11:08:23.189Z,19.73
2019-03-24T11:09:23.180Z,19.85
2019-03-24T11:10:23.171Z,19.27
2019-03-24T11:11:23.166Z,21.08
2019-03-24T11:12:23.156Z,21.42
2019-03-24T11:13:23.144Z,22.09
2019-03-24T11:14:23.132Z,21.39
2019-03-24T11:15:23.127Z,22.35
2019-03-24T11:16:23.119Z,21.36
2019-03-24T11:17:23.113Z,20.17
2019-03-24T11:18:23.120Z,20.15
2019-03-24T11:19:23.097Z,19.25
2019-03-24T11:20:23.084Z,20.95
2019-03-24T11:21:23.079Z,19.96
2019-03-24T11:22:23.071Z,20.78
2019-03-24T11:23:23.056Z,20.51
2019-03-24T11:24:23.059Z,20.19
2019-03-24T11:25:23.050Z,20.09
2019-03-24T11:26:23.034Z,21.84
2019-03-24T11:27:23.027Z,19.96
2019-03-24T11:28:23.037Z,21.80
2019-03-24T11:29:23.007Z,20.64
2019-03-24T11:30:22.994Z,20.54
2019-03-24T11:31:22.991Z,18.27
2019-03-24T11:32:22.981Z,19.53
2019-03-24T11:33:23.267Z,19.71
2019-03-24T11:34:22.987Z,20.06
2019-03-24T11:35:23.428Z,21.71
2019-03-24T11:36:24.050Z,22.00
2019-03-24T11:37:22.973Z,21.30
2019-03-24T11:38:22.945Z,21.61
2019-03-24T11:39:23.605Z,22.11
2019-03-24T11:40:22.975Z,22.09
2019-03-24T11:41:22.907Z,21.19
2019-03-24T11:42:22.894Z,21.06
2019-03-24T11:43:22.886Z,21.73
2019-03-24T11:44:22.879Z,20.43
2019-03-24T11:45:22.866Z,20.51
2019-03-24T11:46:22.858Z,20.09
2019-03-24T11:47:26.872Z,19.96
2019-03-24T11:48:22.840Z,20.49
2019-03-24T11:49:22.835Z,22.56
2019-03-24T11:50:22.823Z,22.63
2019-03-24T11:51:22.815Z,22.01
2019-03-24T11:52:22.812Z,21.09
2019-03-24T11:53:22.800Z,20.01
2019-03-24T11:54:22.794Z,20.21
2019-03-24T11:55:22.782Z,19.96
2019-03-24T11:56:22.778Z,20.06
2019-03-24T11:57:22.771Z,19.26
2019-03-24T11:58:22.759Z,20.15
2019-03-24T11:59:22.750Z,20.81
2019-03-24T12:00:22.741Z,19.91
2019-03-24T12:01:22.728Z,20.06
2019-03-24T12:02:22.722Z,20.45
2019-03-24T12:03:22.715Z,20.14
2019-03-24T12:04:22.704Z,20.61
2019-03-24T12:05:22.694Z,20.75
2019-03-24T12:06:22.691Z,20.76
2019-03-24T12:07:22.687Z,22.53
2019-03-24T12:08:22.672Z,20.33
2019-03-24T12:09:22.687Z,19.94
2019-03-24T12:10:22.653Z,20.87
2019-03-24T12:11:22.643Z,21.25
2019-03-24T12:12:22.648Z,21.14
2019-03-24T12:13:22.626Z,20.14
2019-03-24T12:14:22.620Z,21.39
2019-03-24T12:15:22.610Z,19.12
2019-03-24T12:16:22.600Z,19.88
2019-03-24T12:17:22.592Z,19.59
2019-03-24T12:18:22.587Z,18.10
2019-03-24T12:19:22.578Z,19.37
2019-03-24T12:20:22.572Z,17.80
2019-03-24T12:21:22.570Z,17.52
2019-03-24T12:22:22.556Z,18.13
2019-03-24T12:23:22.540Z,18.52
2019-03-24T12:24:22.531Z,18.21
2019-03-24T12:25:22.534Z,19.59
2019-03-24T12:26:22.516Z,18.99
2019-03-24T12:27:22.594Z,17.50
2019-03-24T12:28:22.495Z,19.96
2019-03-24T12:29:22.490Z,18.39
2019-03-24T12:30:22.475Z,18.18
2019-03-24T12:31:22.474Z,18.57
2019-03-24T12:32:22.464Z,17.49
2019-03-24T12:33:22.473Z,20.15
2019-03-24T12:34:22.448Z,19.36
2019-03-24T12:35:22.436Z,18.36
2019-03-24T12:36:22.442Z,17.41
2019-03-24T12:37:22.418Z,17.45
2019-03-24T12:38:22.416Z,18.16
2019-03-24T12:39:22.504Z,19.12
2019-03-24T12:40:22.492Z,19.20
2019-03-24T12:41:22.377Z,19.62
2019-03-24T12:42:22.381Z,18.23
2019-03-24T12:43:22.364Z,19.08
2019-03-24T12:44:22.359Z,18.58
2019-03-24T12:45:22.345Z,17.71
2019-03-24T12:46:22.338Z,17.79
2019-03-24T12:47:22.325Z,18.65
2019-03-24T12:48:22.351Z,16.42
2019-03-24T12:49:22.311Z,16.93
2019-03-24T12:50:30.913Z,16.56
2019-03-24T12:51:23.291Z,18.34
2019-03-24T12:52:22.290Z,17.26